createdAt,value
2019-02-09T00:00:00.049Z,3.90
2019-02-09T00:02:27.351Z,4.30
2019-02-09T00:04:54.680Z,6.83
2019-02-09T00:07:22.010Z,5.00
2019-02-09T00:09:49.387Z,6.20
2019-02-09T00:12:16.724Z,4.73
2019-02-09T00:14:43.942Z,7.43
2019-02-09T00:17:11.158Z,4.57
2019-02-09T00:19:38.368Z,9.63
2019-02-09T00:22:05.720Z,4.50
2019-02-09T00:24:33.042Z,4.67
2019-02-09T00:27:00.371Z,7.87
2019-02-09T00:29:27.730Z,6.17
2019-02-09T00:31:54.937Z,5.63
2019-02-09T00:34:22.309Z,5.23
2019-02-09T00:36:49.628Z,12.10
2019-02-09T00:39:16.965Z,4.17
2019-02-09T00:41:44.297Z,8.03
2019-02-09T00:44:11.669Z,8.77
2019-02-09T00:46:39.046Z,4.67
2019-02-09T00:49:06.378Z,5.63
2019-02-09T00:51:33.762Z,6.77
2019-02-09T00:54:00.981Z,2.00
2019-02-09T00:56:28.338Z,5.47
2019-02-09T00:58:55.780Z,8.80
2019-02-09T01:01:23.133Z,4.17
2019-02-09T01:03:50.356Z,4.60
2019-02-09T01:06:17.708Z,3.90
2019-02-09T01:08:44.939Z,2.90
2019-02-09T01:11:12.289Z,5.30
2019-02-09T01:13:39.638Z,4.20
2019-02-09T01:16:06.968Z,6.23
2019-02-09T01:18:34.212Z,4.17
2019-02-09T01:21:03.294Z,2.10
2019-02-09T01:23:30.615Z,3.97
2019-02-09T01:25:57.930Z,3.17
2019-02-09T01:28:25.389Z,1.90
2019-02-09T01:30:52.714Z,1.30
2019-02-09T01:33:20.038Z,3.00
2019-02-09T01:35:47.372Z,3.47
2019-02-09T01:38:14.702Z,1.03
2019-02-09T01:40:41.935Z,1.97
2019-02-09T01:43:09.198Z,2.70
2019-02-09T01:45:36.540Z,4.15
2019-02-09T01:48:04.171Z,3.77
2019-02-09T01:50:31.863Z,2.67
2019-02-09T01:52:59.765Z,2.47
2019-02-09T01:55:28.136Z,3.73
2019-02-09T01:57:55.512Z,2.90
2019-02-09T02:00:24.819Z,2.13
2019-02-09T02:02:52.165Z,2.97
2019-02-09T02:05:20.539Z,5.60
2019-02-09T02:07:47.869Z,3.30
2019-02-09T02:10:26.734Z,3.93
2019-02-09T02:12:54.095Z,2.67
2019-02-09T02:15:21.458Z,6.33
2019-02-09T02:17:49.361Z,4.63
2019-02-09T02:20:18.333Z,2.10
2019-02-09T02:22:45.661Z,4.00
2019-02-09T02:25:13.091Z,5.20
2019-02-09T02:27:40.413Z,2.20
2019-02-09T02:30:21.714Z,4.60
2019-02-09T02:32:39.776Z,6.00
2019-02-09T02:35:07.208Z,3.23
2019-02-09T02:37:34.540Z,3.33
2019-02-09T02:40:01.780Z,4.03
2019-02-09T02:42:29.114Z,2.73
2019-02-09T02:44:56.452Z,1.93
2019-02-09T02:47:23.813Z,2.07
2019-02-09T02:49:51.094Z,1.40
2019-02-09T02:52:18.429Z,2.10
2019-02-09T02:54:45.770Z,1.00
2019-02-09T02:57:13.082Z,2.07
2019-02-09T02:59:40.409Z,1.47
2019-02-09T03:02:07.873Z,1.33
2019-02-09T03:04:35.196Z,0.97
2019-02-09T03:07:02.721Z,1.43
2019-02-09T03:09:30.013Z,1.43
2019-02-09T03:11:57.460Z,1.47
2019-02-09T03:14:24.853Z,1.37
2019-02-09T03:16:52.210Z,0.90
2019-02-09T03:19:19.536Z,1.30
2019-02-09T03:21:46.765Z,2.97
2019-02-09T03:24:14.133Z,1.07
2019-02-09T03:26:41.485Z,0.50
2019-02-09T03:29:08.712Z,1.20
2019-02-09T03:31:36.075Z,1.00
2019-02-09T03:34:03.307Z,0.50
2019-02-09T03:36:30.651Z,0.63
2019-02-09T03:38:58.039Z,0.40
2019-02-09T03:41:25.273Z,0.80
2019-02-09T03:43:52.601Z,0.20
2019-02-09T03:46:19.917Z,1.13
2019-02-09T03:48:47.225Z,2.40
2019-02-09T03:51:14.552Z,1.13
2019-02-09T03:53:41.889Z,0.97
2019-02-09T03:56:09.229Z,0.83
2019-02-09T03:58:36.559Z,1.40
2019-02-09T04:01:04.155Z,3.03
2019-02-09T04:03:31.469Z,1.87
2019-02-09T04:05:58.806Z,1.93
2019-02-09T04:08:26.167Z,1.90
2019-02-09T04:10:53.407Z,3.97
2019-02-09T04:13:20.717Z,2.53
2019-02-09T04:15:48.062Z,5.03
2019-02-09T04:18:15.314Z,1.23
2019-02-09T04:20:42.631Z,3.83
2019-02-09T04:23:09.998Z,1.43
2019-02-09T04:25:37.318Z,7.17
2019-02-09T04:28:04.637Z,3.63
2019-02-09T04:30:32.006Z,8.77
2019-02-09T04:32:59.315Z,4.03
2019-02-09T04:35:29.666Z,6.40
2019-02-09T04:37:57.078Z,11.40
2019-02-09T04:40:26.274Z,6.57
2019-02-09T04:42:53.606Z,7.23
2019-02-09T04:45:21.666Z,6.87
2019-02-09T04:47:48.892Z,6.77
2019-02-09T04:50:16.232Z,5.37
2019-02-09T04:52:43.717Z,8.80
2019-02-09T04:55:13.580Z,7.13
2019-02-09T04:57:40.883Z,6.90
2019-02-09T05:00:10.153Z,7.03
2019-02-09T05:02:37.485Z,3.83
2019-02-09T05:05:05.053Z,5.30
2019-02-09T05:07:32.321Z,5.50
2019-02-09T05:09:59.553Z,9.10
2019-02-09T05:12:26.859Z,9.43
2019-02-09T05:14:54.132Z,10.83
2019-02-09T05:17:21.472Z,4.73
2019-02-09T05:19:48.707Z,6.23
2019-02-09T05:22:15.940Z,2.53
2019-02-09T05:24:43.180Z,7.17
2019-02-09T05:27:10.511Z,5.67
2019-02-09T05:29:37.871Z,6.97
2019-02-09T05:32:05.082Z,3.90
2019-02-09T05:34:32.413Z,6.03
2019-02-09T05:36:59.755Z,2.10
2019-02-09T05:39:27.092Z,3.90
2019-02-09T05:41:54.397Z,4.93
2019-02-09T05:44:21.707Z,5.13
2019-02-09T05:46:48.931Z,2.73
2019-02-09T05:49:16.165Z,3.30
2019-02-09T05:51:43.578Z,3.90
2019-02-09T05:54:11.027Z,4.73
2019-02-09T05:56:38.334Z,7.23
2019-02-09T05:59:07.433Z,4.60
2019-02-09T06:01:34.901Z,8.67
2019-02-09T06:04:02.419Z,5.70
2019-02-09T06:06:29.759Z,5.10
2019-02-09T06:08:57.071Z,5.50
2019-02-09T06:11:24.441Z,7.50
2019-02-09T06:13:51.685Z,5.70
2019-02-09T06:16:18.996Z,4.27
2019-02-09T06:18:46.355Z,4.43
2019-02-09T06:21:13.686Z,5.40
2019-02-09T06:23:40.965Z,8.80
2019-02-09T06:26:08.206Z,6.07
2019-02-09T06:28:35.537Z,11.40
2019-02-09T06:31:02.731Z,8.27
2019-02-09T06:33:30.070Z,8.00
2019-02-09T06:35:57.385Z,6.57
2019-02-09T06:38:24.700Z,5.70
2019-02-09T06:40:51.946Z,3.50
2019-02-09T06:43:19.155Z,13.37
2019-02-09T06:45:46.371Z,3.50
2019-02-09T06:48:16.491Z,9.80
2019-02-09T06:50:43.872Z,9.60
2019-02-09T06:53:11.170Z,7.83
2019-02-09T06:55:38.510Z,7.97
2019-02-09T06:58:05.850Z,8.37
2019-02-09T07:00:33.186Z,6.57
2019-02-09T07:03:00.563Z,4.00
2019-02-09T07:05:29.129Z,13.10
2019-02-09T07:07:56.449Z,10.23
2019-02-09T07:10:23.776Z,5.17
2019-02-09T07:12:50.981Z,8.50
2019-02-09T07:15:21.875Z,11.17
2019-02-09T07:17:49.106Z,8.37
2019-02-09T07:20:16.496Z,6.67
2019-02-09T07:22:43.800Z,6.80
2019-02-09T07:25:11.474Z,9.83
2019-02-09T07:27:38.806Z,7.83
2019-02-09T07:30:08.565Z,9.97
2019-02-09T07:32:35.899Z,8.20
2019-02-09T07:35:04.152Z,8.23
2019-02-09T07:37:31.443Z,7.83
2019-02-09T07:39:58.817Z,9.17
2019-02-09T07:42:26.035Z,9.13
2019-02-09T07:44:53.329Z,7.67
2019-02-09T07:47:20.586Z,6.93
2019-02-09T07:49:47.919Z,6.93
2019-02-09T07:52:15.233Z,8.10
2019-02-09T07:54:42.464Z,7.10
2019-02-09T07:57:09.805Z,7.87
2019-02-09T07:59:37.151Z,15.53
2019-02-09T08:02:04.934Z,6.37
2019-02-09T08:04:32.339Z,7.23
2019-02-09T08:06:59.719Z,13.20
2019-02-09T08:09:27.126Z,10.03
2019-02-09T08:11:54.433Z,11.20
2019-02-09T08:14:21.758Z,11.43
2019-02-09T08:16:49.090Z,13.77
2019-02-09T08:19:16.405Z,6.37
2019-02-09T08:21:43.623Z,7.57
2019-02-09T08:24:10.886Z,8.43
2019-02-09T08:26:38.297Z,12.97
2019-02-09T08:29:05.599Z,12.60
2019-02-09T08:31:32.841Z,9.87
2019-02-09T08:34:00.081Z,7.23
2019-02-09T08:36:27.290Z,11.37
2019-02-09T08:38:54.666Z,10.23
2019-02-09T08:41:21.904Z,5.30
2019-02-09T08:43:49.235Z,8.63
2019-02-09T08:46:16.473Z,13.07
2019-02-09T08:48:43.806Z,11.23
2019-02-09T08:51:12.705Z,11.67
2019-02-09T08:53:39.934Z,5.07
2019-02-09T08:56:07.256Z,9.73
2019-02-09T08:58:34.587Z,11.83
2019-02-09T09:01:01.959Z,8.03
2019-02-09T09:03:29.272Z,8.23
2019-02-09T09:05:56.606Z,10.23
2019-02-09T09:08:23.946Z,17.70
2019-02-09T09:10:51.258Z,10.13
2019-02-09T09:13:18.584Z,11.80
2019-02-09T09:15:48.546Z,4.53
2019-02-09T09:18:15.851Z,11.80
2019-02-09T09:20:45.816Z,12.37
2019-02-09T09:23:13.040Z,9.43
2019-02-09T09:25:40.371Z,11.60
2019-02-09T09:28:07.718Z,11.93
2019-02-09T09:30:34.929Z,12.80
2019-02-09T09:33:02.225Z,7.93
2019-02-09T09:35:29.576Z,10.53
2019-02-09T09:37:56.826Z,11.40
2019-02-09T09:40:26.556Z,17.07
2019-02-09T09:42:53.856Z,9.53
2019-02-09T09:45:23.373Z,12.87
2019-02-09T09:47:50.980Z,14.80
2019-02-09T09:50:19.033Z,14.23
2019-02-09T09:52:46.381Z,12.27
2019-02-09T09:55:13.709Z,15.13
2019-02-09T09:57:41.013Z,11.13
2019-02-09T10:00:09.783Z,6.37
2019-02-09T10:02:37.097Z,9.30
2019-02-09T10:05:05.856Z,9.73
2019-02-09T10:07:33.216Z,12.80
2019-02-09T10:10:00.565Z,7.93
2019-02-09T10:12:27.861Z,5.27
2019-02-09T10:14:55.097Z,8.30
2019-02-09T10:17:22.316Z,8.60
2019-02-09T10:19:49.540Z,8.10
2019-02-09T10:22:16.927Z,9.00
2019-02-09T10:24:44.255Z,7.57
2019-02-09T10:27:11.677Z,10.70
2019-02-09T10:29:39.138Z,8.43
2019-02-09T10:32:06.524Z,13.97
2019-02-09T10:34:33.833Z,11.77
2019-02-09T10:37:01.209Z,14.27
2019-02-09T10:39:28.496Z,13.20
2019-02-09T10:41:55.736Z,11.27
2019-02-09T10:44:23.087Z,6.33
2019-02-09T10:46:50.374Z,11.20
2019-02-09T10:49:17.693Z,12.63
2019-02-09T10:51:44.921Z,15.63
2019-02-09T10:54:12.229Z,14.60
2019-02-09T10:56:39.384Z,14.23
2019-02-09T10:59:06.795Z,11.53
2019-02-09T11:01:34.361Z,12.57
2019-02-09T11:04:01.741Z,7.87
2019-02-09T11:06:29.082Z,10.53
2019-02-09T11:08:57.728Z,14.43
2019-02-09T11:11:25.075Z,10.00
2019-02-09T11:13:52.517Z,11.37
2019-02-09T11:16:19.913Z,10.63
2019-02-09T11:18:47.156Z,10.60
2019-02-09T11:21:14.513Z,12.13
2019-02-09T11:23:41.744Z,9.70
2019-02-09T11:26:09.090Z,7.10
2019-02-09T11:28:36.497Z,7.17
2019-02-09T11:31:03.920Z,12.33
2019-02-09T11:33:31.809Z,8.10
2019-02-09T11:36:00.018Z,11.23
2019-02-09T11:38:27.473Z,8.37
2019-02-09T11:40:54.761Z,9.63
2019-02-09T11:43:22.125Z,7.73
2019-02-09T11:45:49.443Z,8.13
2019-02-09T11:48:16.799Z,10.63
2019-02-09T11:50:44.096Z,12.33
2019-02-09T11:53:11.395Z,11.07
2019-02-09T11:55:38.632Z,7.97
2019-02-09T11:58:06.073Z,11.03
2019-02-09T12:00:38.691Z,10.23
2019-02-09T12:03:14.594Z,12.83
2019-02-09T12:05:35.312Z,11.37
2019-02-09T12:08:03.065Z,10.17
2019-02-09T12:10:30.358Z,8.37
2019-02-09T12:12:57.598Z,14.00
2019-02-09T12:15:29.812Z,9.20
2019-02-09T12:17:57.013Z,7.80
2019-02-09T12:20:24.406Z,11.87
2019-02-09T12:22:51.778Z,10.57
2019-02-09T12:25:21.930Z,8.73
2019-02-09T12:27:49.345Z,10.83
2019-02-09T12:30:21.524Z,9.30
2019-02-09T12:32:49.067Z,7.70
2019-02-09T12:35:16.337Z,11.17
2019-02-09T12:37:43.637Z,8.53
2019-02-09T12:40:21.772Z,3.33
2019-02-09T12:42:49.433Z,10.83
2019-02-09T12:45:17.360Z,10.70
2019-02-09T12:47:44.598Z,13.17
2019-02-09T12:50:12.997Z,3.23
2019-02-09T12:52:40.389Z,12.00
2019-02-09T12:55:07.792Z,8.83
2019-02-09T12:57:35.113Z,10.80
2019-02-09T13:00:03.230Z,14.20
2019-02-09T13:02:31.047Z,7.70
2019-02-09T13:04:58.400Z,12.90
2019-02-09T13:07:25.714Z,12.17
2019-02-09T13:09:53.161Z,12.53
2019-02-09T13:12:20.505Z,13.40
2019-02-09T13:14:47.846Z,11.50
2019-02-09T13:17:15.172Z,8.77
2019-02-09T13:19:42.519Z,12.43
2019-02-09T13:22:09.824Z,6.83
2019-02-09T13:24:37.150Z,7.57
2019-02-09T13:27:04.468Z,8.70
2019-02-09T13:29:31.672Z,9.20
2019-02-09T13:31:59.016Z,9.27
2019-02-09T13:34:26.368Z,2.87
2019-02-09T13:36:53.618Z,11.70
2019-02-09T13:39:20.851Z,9.37
2019-02-09T13:41:48.065Z,15.87
2019-02-09T13:44:15.373Z,4.53
2019-02-09T13:46:42.686Z,4.87
2019-02-09T13:49:10.065Z,3.70
2019-02-09T13:51:37.283Z,7.97
2019-02-09T13:54:04.532Z,5.93
2019-02-09T13:56:31.732Z,4.87
2019-02-09T13:58:59.108Z,4.60
2019-02-09T14:01:26.284Z,8.50
2019-02-09T14:03:53.501Z,6.17
2019-02-09T14:06:20.716Z,5.43
2019-02-09T14:08:48.084Z,5.50
2019-02-09T14:11:15.458Z,10.83
2019-02-09T14:13:42.766Z,5.00
2019-02-09T14:16:10.864Z,9.77
2019-02-09T14:18:38.316Z,6.20
2019-02-09T14:21:05.657Z,4.53
2019-02-09T14:23:32.846Z,6.83
2019-02-09T14:26:00.570Z,7.63
2019-02-09T14:28:28.834Z,5.10
2019-02-09T14:30:56.032Z,3.20
2019-02-09T14:33:23.236Z,10.37
2019-02-09T14:35:50.466Z,11.73
2019-02-09T14:38:17.792Z,10.20
2019-02-09T14:40:45.242Z,6.90
2019-02-09T14:43:12.438Z,3.83
2019-02-09T14:45:41.597Z,12.20
2019-02-09T14:48:08.797Z,10.57
2019-02-09T14:50:36.044Z,8.40
2019-02-09T14:53:03.970Z,9.73
2019-02-09T14:55:32.624Z,14.33
2019-02-09T14:58:00.194Z,12.60
2019-02-09T15:00:41.606Z,4.53
2019-02-09T15:03:09.375Z,10.53
2019-02-09T15:05:36.731Z,13.63
2019-02-09T15:08:05.020Z,8.50
2019-02-09T15:10:32.349Z,4.57
2019-02-09T15:12:59.677Z,6.33
2019-02-09T15:15:29.512Z,6.97
2019-02-09T15:17:56.739Z,8.67
2019-02-09T15:20:26.986Z,13.30
2019-02-09T15:22:54.294Z,12.30
2019-02-09T15:25:21.600Z,12.13
2019-02-09T15:27:48.841Z,19.30
2019-02-09T15:30:19.045Z,8.03
2019-02-09T15:32:46.408Z,14.23
2019-02-09T15:35:13.758Z,11.80
2019-02-09T15:37:41.092Z,11.33
2019-02-09T15:40:10.986Z,10.97
2019-02-09T15:42:38.275Z,12.47
2019-02-09T15:45:06.493Z,13.60
2019-02-09T15:47:33.861Z,3.30
2019-02-09T15:50:01.176Z,11.50
2019-02-09T15:52:28.446Z,16.87
2019-02-09T15:54:55.668Z,12.40
2019-02-09T15:57:23.017Z,8.53
2019-02-09T15:59:50.342Z,13.93
2019-02-09T16:02:17.576Z,6.27
2019-02-09T16:04:44.780Z,12.37
2019-02-09T16:07:12.002Z,7.93
2019-02-09T16:09:39.265Z,12.77
2019-02-09T16:12:06.628Z,12.93
2019-02-09T16:14:33.930Z,12.50
2019-02-09T16:17:01.328Z,9.63
2019-02-09T16:19:28.740Z,7.37
2019-02-09T16:21:56.054Z,11.53
2019-02-09T16:24:23.465Z,12.07
2019-02-09T16:26:50.770Z,9.67
2019-02-09T16:29:18.096Z,7.67
2019-02-09T16:31:45.310Z,8.50
2019-02-09T16:34:12.627Z,9.87
2019-02-09T16:36:39.941Z,9.93
2019-02-09T16:39:07.567Z,11.07
2019-02-09T16:41:34.898Z,10.07
2019-02-09T16:44:02.130Z,15.20
2019-02-09T16:46:29.452Z,7.40
2019-02-09T16:48:56.802Z,9.43
2019-02-09T16:51:24.160Z,10.63
2019-02-09T16:53:51.489Z,7.83
2019-02-09T16:56:18.740Z,11.33
2019-02-09T16:58:46.160Z,7.93
2019-02-09T17:01:13.490Z,8.83
2019-02-09T17:03:40.806Z,11.87
2019-02-09T17:06:08.162Z,7.93
2019-02-09T17:08:35.392Z,9.20
2019-02-09T17:11:02.944Z,13.50
2019-02-09T17:13:30.288Z,9.23
2019-02-09T17:15:57.501Z,8.13
2019-02-09T17:18:24.721Z,6.50
2019-02-09T17:20:52.969Z,8.90
2019-02-09T17:23:20.354Z,11.17
2019-02-09T17:25:47.698Z,9.10
2019-02-09T17:28:15.108Z,9.40
2019-02-09T17:30:42.438Z,9.77
2019-02-09T17:33:09.804Z,7.20
2019-02-09T17:35:37.119Z,8.87
2019-02-09T17:38:06.588Z,10.10
2019-02-09T17:40:39.460Z,10.90
2019-02-09T17:43:10.005Z,12.37
2019-02-09T17:45:41.188Z,7.20
2019-02-09T17:48:08.408Z,14.87
2019-02-09T17:50:37.522Z,14.93
2019-02-09T17:53:04.878Z,10.30
2019-02-09T17:55:32.173Z,11.47
2019-02-09T17:57:59.510Z,9.77
2019-02-09T18:00:36.179Z,10.90
2019-02-09T18:03:03.524Z,8.47
2019-02-09T18:05:30.876Z,11.83
2019-02-09T18:07:58.226Z,17.03
2019-02-09T18:10:25.570Z,12.80
2019-02-09T18:12:52.919Z,10.77
2019-02-09T18:15:20.392Z,13.80
2019-02-09T18:17:50.781Z,10.07
2019-02-09T18:20:18.282Z,13.67
2019-02-09T18:22:45.752Z,14.17
2019-02-09T18:25:14.892Z,14.73
2019-02-09T18:27:42.199Z,11.73
2019-02-09T18:30:12.977Z,14.07
2019-02-09T18:32:40.309Z,12.03
2019-02-09T18:35:07.958Z,9.27
2019-02-09T18:37:35.324Z,11.80
2019-02-09T18:40:04.725Z,9.80
2019-02-09T18:42:32.072Z,10.90
2019-02-09T18:44:59.525Z,7.97
2019-02-09T18:47:26.894Z,11.10
2019-02-09T18:49:54.204Z,7.90
2019-02-09T18:52:21.520Z,10.47
2019-02-09T18:54:49.172Z,12.57
2019-02-09T18:57:16.538Z,8.27
2019-02-09T18:59:43.825Z,12.03
2019-02-09T19:02:11.291Z,8.07
2019-02-09T19:04:38.677Z,11.70
2019-02-09T19:07:06.132Z,15.50
2019-02-09T19:09:33.452Z,12.60
2019-02-09T19:12:00.832Z,19.43
2019-02-09T19:14:28.632Z,13.93
2019-02-09T19:16:56.027Z,12.67
2019-02-09T19:19:23.377Z,13.33
2019-02-09T19:21:50.736Z,14.03
2019-02-09T19:24:18.124Z,11.23
2019-02-09T19:26:45.510Z,10.03
2019-02-09T19:29:12.844Z,11.73
2019-02-09T19:31:40.234Z,9.27
2019-02-09T19:34:07.604Z,10.40
2019-02-09T19:36:34.968Z,10.27
2019-02-09T19:39:03.924Z,9.13
2019-02-09T19:41:31.306Z,9.80
2019-02-09T19:43:58.631Z,9.47
2019-02-09T19:46:25.955Z,5.53
2019-02-09T19:48:53.332Z,14.07
2019-02-09T19:51:20.573Z,11.90
2019-02-09T19:53:47.935Z,9.13
2019-02-09T19:56:15.272Z,11.83
2019-02-09T19:58:42.578Z,16.93
2019-02-09T20:01:09.892Z,12.27
2019-02-09T20:03:37.217Z,11.27
2019-02-09T20:06:04.561Z,10.43
2019-02-09T20:08:31.804Z,10.23
2019-02-09T20:10:59.228Z,14.10
2019-02-09T20:13:26.545Z,12.13
2019-02-09T20:15:53.874Z,14.77
2019-02-09T20:18:21.203Z,14.63
2019-02-09T20:20:48.537Z,13.87
2019-02-09T20:23:15.745Z,14.93
2019-02-09T20:25:43.105Z,11.57
2019-02-09T20:28:10.446Z,14.30
2019-02-09T20:30:37.945Z,14.90
2019-02-09T20:33:05.485Z,12.63
2019-02-09T20:35:32.824Z,14.53
2019-02-09T20:38:00.244Z,12.30
2019-02-09T20:40:29.845Z,13.60
2019-02-09T20:43:01.930Z,14.30
2019-02-09T20:45:26.420Z,16.23
2019-02-09T20:47:53.774Z,14.87
2019-02-09T20:50:21.269Z,15.47
2019-02-09T20:52:48.634Z,14.30
2019-02-09T20:55:15.997Z,12.47
2019-02-09T20:57:43.330Z,15.57
2019-02-09T21:00:18.256Z,14.23
2019-02-09T21:02:42.937Z,17.60
2019-02-09T21:05:10.513Z,12.10
2019-02-09T21:07:37.870Z,15.77
2019-02-09T21:10:07.998Z,16.07
2019-02-09T21:12:35.353Z,13.87
2019-02-09T21:15:02.806Z,15.30
2019-02-09T21:17:30.135Z,16.23
2019-02-09T21:19:57.469Z,15.67
2019-02-09T21:22:24.919Z,14.13
2019-02-09T21:24:52.576Z,15.77
2019-02-09T21:27:20.069Z,17.13
2019-02-09T21:29:47.690Z,14.87
2019-02-09T21:32:15.201Z,13.57
2019-02-09T21:34:42.598Z,16.90
2019-02-09T21:37:09.964Z,13.17
2019-02-09T21:39:37.317Z,13.50
2019-02-09T21:42:04.980Z,14.90
2019-02-09T21:44:32.346Z,18.70
2019-02-09T21:46:59.680Z,13.57
2019-02-09T21:49:27.049Z,17.37
2019-02-09T21:51:54.312Z,18.57
2019-02-09T21:54:21.653Z,10.43
2019-02-09T21:56:48.999Z,15.13
2019-02-09T21:59:16.341Z,17.43
2019-02-09T22:01:43.686Z,15.43
2019-02-09T22:04:11.081Z,19.33
2019-02-09T22:06:38.406Z,13.40
2019-02-09T22:09:06.852Z,14.53
2019-02-09T22:11:34.283Z,18.53
2019-02-09T22:14:01.762Z,21.30
2019-02-09T22:16:29.121Z,16.47
2019-02-09T22:18:58.551Z,19.27
2019-02-09T22:21:25.818Z,17.40
2019-02-09T22:23:53.245Z,20.87
2019-02-09T22:26:21.998Z,12.67
2019-02-09T22:28:49.553Z,19.57
2019-02-09T22:31:21.874Z,15.80
2019-02-09T22:33:48.701Z,14.07
2019-02-09T22:36:16.813Z,16.83
2019-02-09T22:38:44.075Z,18.60
2019-02-09T22:41:11.407Z,16.93
2019-02-09T22:43:38.786Z,16.57
2019-02-09T22:46:06.128Z,18.03
2019-02-09T22:48:33.331Z,17.00
2019-02-09T22:51:00.600Z,17.50
2019-02-09T22:53:27.972Z,16.63
2019-02-09T22:55:55.225Z,18.50
2019-02-09T22:58:22.614Z,19.77
2019-02-09T23:00:59.471Z,16.43
2019-02-09T23:03:33.143Z,17.67
2019-02-09T23:06:52.522Z,20.23
2019-02-09T23:09:19.044Z,19.50
2019-02-09T23:11:46.393Z,19.43
2019-02-09T23:14:13.749Z,18.07
2019-02-09T23:16:41.028Z,21.13
2019-02-09T23:19:08.402Z,20.17
2019-02-09T23:21:36.046Z,12.03
2019-02-09T23:24:03.503Z,16.87
2019-02-09T23:26:30.784Z,17.90
2019-02-09T23:28:58.441Z,21.10
2019-02-09T23:31:25.792Z,24.17
2019-02-09T23:33:53.145Z,10.70
2019-02-09T23:36:20.505Z,16.67
2019-02-09T23:38:47.843Z,16.60
2019-02-09T23:41:15.297Z,20.23
2019-02-09T23:43:42.719Z,18.33
2019-02-09T23:46:10.089Z,21.73
2019-02-09T23:48:37.601Z,15.67
2019-02-09T23:51:05.021Z,16.20
2019-02-09T23:53:32.369Z,18.83
2019-02-09T23:55:59.602Z,16.90
2019-02-09T23:58:26.977Z,12.67
